Time;durP1;ratioP1;P1;durP2;ratioP2;P2;SDS_P1;SDS_P2;PMS_P1;PMS_P2;Temp;Humidity;BMP_temperature;BMP_pressure;BME280_temperature;BME280_humidity;BME280_pressure;Samples;Min_cycle;Max_cycle;Signal;HPM_P1;HPM_P2
2021/08/17 00:01:32;;;;;;;3.17;1.50;;;17.10;90.00;;;;;;5076700;28;20777;-68
2021/08/17 00:03:59;;;;;;;4.43;1.70;;;17.00;90.00;;;;;;5076461;28;20427;-68
2021/08/17 00:06:26;;;;;;;2.60;1.60;;;16.90;90.10;;;;;;5076211;28;20522;-68
2021/08/17 00:08:53;;;;;;;2.80;1.70;;;16.80;90.10;;;;;;5076594;28;20440;-69
2021/08/17 00:11:22;;;;;;;2.97;1.70;;;16.80;90.30;;;;;;5076276;28;20525;-69
2021/08/17 00:13:49;;;;;;;4.40;2.73;;;16.70;90.50;;;;;;5076039;28;20780;-69
2021/08/17 00:16:16;;;;;;;7.47;3.33;;;16.60;90.40;;;;;;5076103;28;20475;-73
2021/08/17 00:18:43;;;;;;;4.07;2.33;;;16.50;90.40;;;;;;5076125;28;20914;-68
2021/08/17 00:21:16;;;;;;;4.97;2.87;;;16.50;91.00;;;;;;5076000;28;20432;-68
2021/08/17 00:23:43;;;;;;;6.80;3.40;;;16.40;90.60;;;;;;5076130;28;20883;-68
2021/08/17 00:26:10;;;;;;;4.53;3.00;;;16.40;90.70;;;;;;5075866;28;20546;-68
2021/08/17 00:28:39;;;;;;;6.27;3.20;;;16.30;90.60;;;;;;5076180;28;20519;-68
2021/08/17 00:31:06;;;;;;;5.80;3.53;;;16.30;90.70;;;;;;5075784;28;20474;-68
2021/08/17 00:33:35;;;;;;;5.77;3.67;;;16.20;90.70;;;;;;5075877;28;20562;-68
2021/08/17 00:36:03;;;;;;;7.03;4.37;;;16.20;90.90;;;;;;5075594;28;20444;-68
2021/08/17 00:38:30;;;;;;;5.43;3.67;;;16.20;90.90;;;;;;5075559;28;20471;-68
2021/08/17 00:40:57;;;;;;;6.30;3.80;;;16.20;90.90;;;;;;5075802;28;20991;-68
2021/08/17 00:43:24;;;;;;;6.10;3.80;;;16.10;90.90;;;;;;5075671;28;20517;-69
2021/08/17 00:45:53;;;;;;;5.70;4.07;;;16.10;91.00;;;;;;5075626;28;20527;-68
2021/08/17 00:48:20;;;;;;;6.70;4.53;;;16.10;91.30;;;;;;5075770;28;20482;-69
2021/08/17 00:50:51;;;;;;;5.27;4.47;;;16.10;91.30;;;;;;5075713;28;20997;-68
2021/08/17 00:53:20;;;;;;;6.83;3.93;;;16.10;91.40;;;;;;5075297;28;20566;-70
2021/08/17 00:55:47;;;;;;;6.60;3.83;;;16.10;91.30;;;;;;5075596;28;20439;-69
2021/08/17 00:58:14;;;;;;;6.30;4.03;;;16.10;91.50;;;;;;5075676;28;20435;-68
2021/08/17 01:00:41;;;;;;;8.73;4.80;;;16.10;91.50;;;;;;5074793;28;20470;-68
2021/08/17 01:03:10;;;;;;;6.60;4.30;;;16.10;91.60;;;;;;5075145;28;20530;-68
2021/08/17 01:05:37;;;;;;;7.10;4.50;;;16.00;91.50;;;;;;5075381;28;20440;-68
2021/08/17 01:08:08;;;;;;;6.30;4.03;;;16.00;91.40;;;;;;5075377;28;20485;-68
2021/08/17 01:10:35;;;;;;;4.73;3.67;;;15.90;91.30;;;;;;5075249;28;20443;-68
2021/08/17 01:13:02;;;;;;;6.20;4.50;;;15.80;91.70;;;;;;5075371;28;20566;-68
2021/08/17 01:15:34;;;;;;;6.10;4.00;;;15.80;91.60;;;;;;5075256;28;20853;-70
2021/08/17 01:18:01;;;;;;;6.53;3.90;;;15.60;91.80;;;;;;5075416;28;20515;-68
2021/08/17 01:20:32;;;;;;;8.30;4.60;;;15.40;92.10;;;;;;5075092;28;20485;-68
2021/08/17 01:22:59;;;;;;;6.20;3.60;;;15.30;92.60;;;;;;5074760;28;20447;-68
2021/08/17 01:25:35;;;;;;;5.70;3.87;;;15.20;93.00;;;;;;5075154;28;20550;-68
2021/08/17 01:28:04;;;;;;;6.70;4.13;;;15.00;93.30;;;;;;5074653;28;20506;-68
2021/08/17 01:30:31;;;;;;;5.70;4.10;;;15.00;93.80;;;;;;5074957;28;20522;-68
2021/08/17 01:32:58;;;;;;;8.87;5.33;;;15.10;94.20;;;;;;5074668;28;21089;-68
2021/08/17 01:35:26;;;;;;;10.80;6.40;;;15.00;93.70;;;;;;5074655;28;20528;-68
2021/08/17 01:37:54;;;;;;;9.67;6.03;;;15.10;94.00;;;;;;5074488;28;20451;-68
2021/08/17 01:40:21;;;;;;;9.83;5.20;;;15.00;93.90;;;;;;5074946;28;20523;-68
2021/08/17 01:42:51;;;;;;;7.63;5.10;;;15.00;93.80;;;;;;5074786;28;20853;-68
2021/08/17 01:45:19;;;;;;;9.83;6.30;;;15.00;93.80;;;;;;5074798;28;20451;-67
2021/08/17 01:47:47;;;;;;;7.97;6.03;;;15.00;94.00;;;;;;5074546;28;20463;-68
2021/08/17 01:50:15;;;;;;;13.50;5.50;;;15.00;94.00;;;;;;5074746;28;20444;-68
2021/08/17 01:52:42;;;;;;;9.20;5.80;;;15.10;93.90;;;;;;5074257;28;20586;-68
2021/08/17 01:55:10;;;;;;;9.97;6.63;;;15.10;93.70;;;;;;5074264;28;20523;-68
2021/08/17 01:57:37;;;;;;;10.47;5.57;;;15.10;93.80;;;;;;5074113;28;20524;-68
2021/08/17 02:00:07;;;;;;;9.20;6.47;;;15.10;93.90;;;;;;5073852;28;20517;-68
2021/08/17 02:02:36;;;;;;;8.43;6.10;;;15.00;93.70;;;;;;5074158;28;20440;-68
2021/08/17 02:05:03;;;;;;;9.00;6.20;;;15.10;94.00;;;;;;5074224;28;20534;-68
2021/08/17 02:07:30;;;;;;;8.40;6.53;;;15.10;93.80;;;;;;5074167;28;20527;-68
2021/08/17 02:09:57;;;;;;;9.03;6.77;;;15.10;93.80;;;;;;5073859;28;20515;-68
2021/08/17 02:12:24;;;;;;;9.10;6.03;;;15.10;94.10;;;;;;5072992;28;21097;-69
2021/08/17 02:14:51;;;;;;;7.93;4.87;;;15.10;94.10;;;;;;5073710;28;20528;-68
2021/08/17 02:17:19;;;;;;;6.50;4.77;;;15.10;93.90;;;;;;5074151;28;20515;-68
2021/08/17 02:19:46;;;;;;;6.93;4.77;;;15.10;93.90;;;;;;5073710;28;20517;-68
2021/08/17 02:22:14;;;;;;;8.30;5.03;;;15.10;94.00;;;;;;5074051;28;20472;-68
2021/08/17 02:24:41;;;;;;;7.20;5.10;;;15.10;93.80;;;;;;5073816;28;20476;-68
2021/08/17 02:27:08;;;;;;;8.93;7.23;;;15.10;93.50;;;;;;5073272;28;20558;-68
2021/08/17 02:29:35;;;;;;;8.43;4.47;;;15.10;94.10;;;;;;5073655;28;20435;-68
2021/08/17 02:32:03;;;;;;;8.77;5.73;;;15.10;94.00;;;;;;5073759;28;20813;-68
2021/08/17 02:34:31;;;;;;;7.13;5.03;;;15.10;94.30;;;;;;5073104;28;20990;-68
2021/08/17 02:36:58;;;;;;;6.77;4.70;;;15.10;94.00;;;;;;5073193;28;20519;-68
2021/08/17 02:39:25;;;;;;;8.83;5.53;;;15.10;93.50;;;;;;5073260;28;20523;-68
2021/08/17 02:41:52;;;;;;;8.20;5.40;;;15.00;93.80;;;;;;5073364;28;20519;-69
2021/08/17 02:44:19;;;;;;;7.30;4.77;;;15.00;93.70;;;;;;5073257;28;20432;-70
2021/08/17 02:46:46;;;;;;;8.50;4.63;;;15.00;94.20;;;;;;5073107;28;20500;-68
2021/08/17 02:49:14;;;;;;;13.17;6.13;;;15.00;94.30;;;;;;5072912;28;20468;-68
2021/08/17 02:51:42;;;;;;;6.63;4.40;;;15.10;94.30;;;;;;5073231;28;20446;-68
2021/08/17 02:54:09;;;;;;;7.10;4.27;;;15.10;94.00;;;;;;5073074;28;20568;-67
2021/08/17 02:56:38;;;;;;;10.10;5.83;;;15.10;94.30;;;;;;5073218;28;20522;-68
2021/08/17 02:59:05;;;;;;;10.10;5.40;;;15.10;94.30;;;;;;5073203;28;20523;-67
2021/08/17 03:01:32;;;;;;;6.87;4.43;;;15.10;94.40;;;;;;5073030;28;20865;-68
2021/08/17 03:03:59;;;;;;;8.40;5.70;;;15.10;94.50;;;;;;5073230;28;20471;-68
2021/08/17 03:06:26;;;;;;;7.20;4.27;;;15.10;94.40;;;;;;5072999;28;20834;-69
2021/08/17 03:08:54;;;;;;;6.50;4.20;;;15.20;94.30;;;;;;5073042;28;20518;-68
2021/08/17 03:11:24;;;;;;;9.30;4.20;;;15.20;94.50;;;;;;5073174;28;20467;-68
2021/08/17 03:13:51;;;;;;;6.27;4.20;;;15.20;94.40;;;;;;5072933;28;20486;-68
2021/08/17 03:16:18;;;;;;;6.93;3.70;;;15.20;94.10;;;;;;5073020;28;20852;-69
2021/08/17 03:18:45;;;;;;;8.50;5.00;;;15.20;94.00;;;;;;5072689;28;20432;-68
2021/08/17 03:21:12;;;;;;;8.70;4.33;;;15.20;94.00;;;;;;5072809;28;20471;-68
2021/08/17 03:23:39;;;;;;;6.30;3.73;;;15.20;94.00;;;;;;5072762;28;20834;-68
2021/08/17 03:26:09;;;;;;;7.43;4.13;;;15.20;93.70;;;;;;5072510;28;20567;-68
2021/08/17 03:28:36;;;;;;;5.60;3.20;;;15.20;94.00;;;;;;5072608;28;20538;-69
2021/08/17 03:31:03;;;;;;;6.30;3.87;;;15.20;94.10;;;;;;5072405;28;20527;-68
2021/08/17 03:33:30;;;;;;;6.80;3.40;;;15.20;94.10;;;;;;5072636;28;20511;-68
2021/08/17 03:35:57;;;;;;;6.17;3.67;;;15.20;94.30;;;;;;5072789;28;20428;-68
2021/08/17 03:38:24;;;;;;;6.70;3.97;;;15.10;94.00;;;;;;5073001;28;20493;-68
2021/08/17 03:40:56;;;;;;;4.97;3.30;;;15.20;94.10;;;;;;5072748;28;20515;-68
2021/08/17 03:43:26;;;;;;;7.50;4.10;;;15.20;94.30;;;;;;5072711;28;20447;-68
2021/08/17 03:45:53;;;;;;;6.27;3.50;;;15.10;93.90;;;;;;5072167;28;20526;-69
2021/08/17 03:48:20;;;;;;;7.87;4.47;;;15.10;93.70;;;;;;5072407;28;20507;-69
2021/08/17 03:50:48;;;;;;;4.73;3.27;;;15.10;93.40;;;;;;5072471;28;20440;-67
2021/08/17 03:53:15;;;;;;;5.30;2.90;;;15.10;93.00;;;;;;5072199;28;20483;-70
2021/08/17 03:55:42;;;;;;;4.97;3.00;;;15.10;93.10;;;;;;5072730;28;20903;-68
2021/08/17 03:58:09;;;;;;;5.97;3.53;;;15.10;92.80;;;;;;5072789;28;20471;-68
2021/08/17 04:00:38;;;;;;;5.10;3.50;;;15.10;92.70;;;;;;5072191;28;20523;-67
2021/08/17 04:03:05;;;;;;;4.60;2.67;;;15.10;92.70;;;;;;5072309;28;20523;-68
2021/08/17 04:05:33;;;;;;;4.40;2.70;;;15.00;92.50;;;;;;5072365;28;20440;-68
2021/08/17 04:08:00;;;;;;;4.33;2.97;;;15.00;92.90;;;;;;5072348;28;20513;-68
2021/08/17 04:10:27;;;;;;;4.77;2.40;;;15.00;92.80;;;;;;5072360;28;20440;-68
2021/08/17 04:12:54;;;;;;;7.63;3.80;;;15.00;92.60;;;;;;5072158;28;20506;-68
2021/08/17 04:15:21;;;;;;;5.00;3.13;;;15.00;92.40;;;;;;5072568;28;20464;-68
2021/08/17 04:17:49;;;;;;;7.40;3.37;;;14.90;92.30;;;;;;5072224;28;20444;-68
2021/08/17 04:20:16;;;;;;;4.37;2.80;;;14.90;92.60;;;;;;5072540;28;20436;-68
2021/08/17 04:22:48;;;;;;;4.87;2.70;;;14.90;92.60;;;;;;5072266;28;20440;-68
2021/08/17 04:25:15;;;;;;;5.10;2.60;;;14.90;92.60;;;;;;5072559;28;20543;-67
2021/08/17 04:27:42;;;;;;;5.43;3.17;;;14.90;92.70;;;;;;5071816;28;20894;-68
2021/08/17 04:30:11;;;;;;;7.23;3.50;;;14.90;92.70;;;;;;5071922;28;20522;-68
2021/08/17 04:32:38;;;;;;;5.77;3.70;;;14.90;92.80;;;;;;5071742;28;20471;-68
2021/08/17 04:35:07;;;;;;;4.73;3.20;;;14.80;92.90;;;;;;5072513;28;20476;-68
2021/08/17 04:37:34;;;;;;;5.17;3.27;;;14.80;93.10;;;;;;5075580;28;21020;-68
2021/08/17 04:40:02;;;;;;;4.77;2.87;;;14.80;93.30;;;;;;5075577;28;20476;-68
2021/08/17 04:42:29;;;;;;;5.97;2.73;;;14.80;93.40;;;;;;5075353;28;20526;-68
2021/08/17 04:44:57;;;;;;;5.43;3.43;;;14.80;93.30;;;;;;5075316;28;20482;-68
2021/08/17 04:47:23;;;;;;;6.40;2.57;;;14.80;93.20;;;;;;5075519;28;20440;-68
2021/08/17 04:49:50;;;;;;;5.00;2.73;;;14.80;92.90;;;;;;5075380;28;20467;-69
2021/08/17 04:52:19;;;;;;;4.20;3.03;;;14.80;92.80;;;;;;5075575;28;20471;-68
2021/08/17 04:54:46;;;;;;;5.73;2.70;;;14.80;92.90;;;;;;5075309;28;20558;-67
2021/08/17 04:57:13;;;;;;;5.47;2.77;;;14.80;93.20;;;;;;5075486;28;20523;-67
2021/08/17 04:59:40;;;;;;;3.50;2.27;;;14.80;93.00;;;;;;5075271;28;20440;-68
2021/08/17 05:02:07;;;;;;;4.83;2.70;;;14.80;93.10;;;;;;5075031;28;20837;-68
2021/08/17 05:04:34;;;;;;;5.10;3.00;;;14.80;93.10;;;;;;5075048;28;20519;-69
2021/08/17 05:07:01;;;;;;;4.13;2.53;;;14.80;92.90;;;;;;5075290;28;21013;-68
2021/08/17 05:09:30;;;;;;;3.50;2.13;;;14.80;92.90;;;;;;5074969;28;20478;-69
2021/08/17 05:12:00;;;;;;;5.03;2.33;;;14.80;93.00;;;;;;5074721;28;20513;-68
2021/08/17 05:14:27;;;;;;;4.10;2.50;;;14.80;93.00;;;;;;5074998;28;20484;-68
2021/08/17 05:16:54;;;;;;;5.50;2.90;;;14.80;92.90;;;;;;5074644;28;20440;-68
2021/08/17 05:19:21;;;;;;;4.50;2.23;;;14.80;93.10;;;;;;5074802;28;20440;-68
2021/08/17 05:21:48;;;;;;;3.47;2.60;;;14.80;92.90;;;;;;5075005;28;20527;-68
2021/08/17 05:24:15;;;;;;;4.93;3.07;;;14.80;92.80;;;;;;5074639;28;20518;-68
2021/08/17 05:26:44;;;;;;;2.77;2.03;;;14.80;93.20;;;;;;5073829;28;20475;-68
2021/08/17 05:29:12;;;;;;;3.73;2.37;;;14.90;93.00;;;;;;5074418;28;20789;-69
2021/08/17 05:31:39;;;;;;;3.70;2.03;;;14.90;93.00;;;;;;5074358;28;20479;-69
2021/08/17 05:34:11;;;;;;;3.80;1.93;;;14.90;93.30;;;;;;5073790;28;20526;-68
2021/08/17 05:36:38;;;;;;;3.37;2.30;;;15.00;93.00;;;;;;5075179;28;21633;-68
2021/08/17 05:39:05;;;;;;;4.73;2.53;;;15.00;92.90;;;;;;5074511;28;20923;-68
2021/08/17 05:41:33;;;;;;;5.67;3.33;;;15.00;92.80;;;;;;5074112;28;20428;-68
2021/08/17 05:44:01;;;;;;;5.33;2.70;;;15.10;92.80;;;;;;5074347;28;20440;-68
2021/08/17 05:46:28;;;;;;;5.00;3.27;;;15.10;92.20;;;;;;5074107;28;20902;-68
2021/08/17 05:49:02;;;;;;;3.77;2.33;;;15.10;92.00;;;;;;5074395;28;20448;-68
2021/08/17 05:51:29;;;;;;;4.97;2.00;;;15.20;91.60;;;;;;5074685;28;20472;-68
2021/08/17 05:53:56;;;;;;;3.73;2.30;;;15.20;91.90;;;;;;5073805;28;20563;-68
2021/08/17 05:56:23;;;;;;;5.80;2.30;;;15.30;91.80;;;;;;5074115;28;20490;-68
2021/08/17 05:58:51;;;;;;;4.13;2.33;;;15.30;91.90;;;;;;5074139;28;20476;-69
2021/08/17 06:01:20;;;;;;;4.03;2.43;;;15.40;92.10;;;;;;5073912;28;20832;-68
2021/08/17 06:03:47;;;;;;;5.17;2.90;;;15.50;92.00;;;;;;5073885;28;20514;-68
2021/08/17 06:06:14;;;;;;;6.30;3.00;;;15.60;91.60;;;;;;5074291;28;20493;-68
2021/08/17 06:08:41;;;;;;;4.50;3.03;;;15.70;91.70;;;;;;5073833;28;20906;-68
2021/08/17 06:11:08;;;;;;;4.80;2.90;;;15.80;91.50;;;;;;5073928;28;20532;-68
2021/08/17 06:13:35;;;;;;;4.97;2.90;;;15.90;91.70;;;;;;5073577;28;20499;-68
2021/08/17 06:16:04;;;;;;;5.20;3.70;;;16.10;91.90;;;;;;5073401;28;20934;-68
2021/08/17 06:18:33;;;;;;;4.90;2.30;;;16.30;91.20;;;;;;5073839;28;20447;-68
2021/08/17 06:21:04;;;;;;;3.40;2.00;;;16.40;90.40;;;;;;5073581;28;20480;-68
2021/08/17 06:23:31;;;;;;;4.20;2.77;;;16.40;90.40;;;;;;5073706;28;20523;-69
2021/08/17 06:25:58;;;;;;;6.17;3.00;;;16.50;90.30;;;;;;5072959;28;20519;-70
2021/08/17 06:28:28;;;;;;;5.03;1.73;;;16.60;88.10;;;;;;5073605;28;20508;-68
2021/08/17 06:30:55;;;;;;;5.13;2.73;;;16.60;87.30;;;;;;5073029;28;20480;-68
2021/08/17 06:33:22;;;;;;;4.30;2.50;;;16.70;87.30;;;;;;5072390;28;20527;-68
2021/08/17 06:35:54;;;;;;;5.40;2.63;;;16.70;87.20;;;;;;5072768;28;20527;-69
2021/08/17 06:38:21;;;;;;;3.73;2.50;;;16.70;86.50;;;;;;5072780;28;20432;-69
2021/08/17 06:40:48;;;;;;;3.80;2.40;;;16.80;86.90;;;;;;5072771;28;20516;-68
2021/08/17 06:43:21;;;;;;;4.97;2.70;;;16.80;86.90;;;;;;5073093;28;20444;-68
2021/08/17 06:45:48;;;;;;;4.30;2.83;;;16.80;87.10;;;;;;5073168;28;20444;-68
2021/08/17 06:48:15;;;;;;;6.00;4.00;;;16.90;87.60;;;;;;5072880;28;20471;-68
2021/08/17 06:50:42;;;;;;;8.20;4.20;;;17.00;88.00;;;;;;5073023;28;20843;-68
2021/08/17 06:53:11;;;;;;;6.00;3.30;;;17.20;88.10;;;;;;5072713;28;20535;-70
2021/08/17 06:55:38;;;;;;;4.40;2.60;;;17.50;88.40;;;;;;5072707;28;20537;-68
2021/08/17 06:58:11;;;;;;;5.13;2.73;;;17.60;86.40;;;;;;5072295;28;20502;-68
2021/08/17 07:00:39;;;;;;;4.13;2.97;;;17.70;86.40;;;;;;5072657;28;21015;-68
2021/08/17 07:03:07;;;;;;;4.50;3.17;;;17.80;85.20;;;;;;5072551;28;20451;-68
2021/08/17 07:05:47;;;;;;;6.90;4.00;;;17.90;84.50;;;;;;5072924;28;20535;-68
2021/08/17 07:08:16;;;;;;;5.97;3.87;;;18.00;84.60;;;;;;5072773;28;20514;-68
2021/08/17 07:10:44;;;;;;;5.60;2.93;;;18.10;83.00;;;;;;5072811;28;20436;-69
2021/08/17 07:13:11;;;;;;;6.70;3.70;;;18.20;83.60;;;;;;5072649;28;20448;-68
2021/08/17 07:15:38;;;;;;;4.83;2.57;;;18.30;82.50;;;;;;5072487;28;20475;-68
2021/08/17 07:18:05;;;;;;;5.80;3.10;;;18.50;79.90;;;;;;5072199;28;20522;-68
2021/08/17 07:20:33;;;;;;;4.93;3.03;;;18.50;80.10;;;;;;5072266;28;20472;-68
2021/08/17 07:22:59;;;;;;;5.70;3.50;;;18.50;80.10;;;;;;5072509;28;20862;-68
2021/08/17 07:25:28;;;;;;;6.60;4.33;;;18.60;81.20;;;;;;5072236;28;20459;-68
2021/08/17 07:27:55;;;;;;;6.40;3.60;;;18.70;81.90;;;;;;5072247;28;20499;-69
2021/08/17 07:30:23;;;;;;;9.40;4.57;;;18.80;79.80;;;;;;5072410;28;20531;-73
2021/08/17 07:32:54;;;;;;;7.50;5.17;;;18.70;77.30;;;;;;5072227;28;20463;-68
2021/08/17 07:35:21;;;;;;;6.60;3.80;;;18.70;78.70;;;;;;5072034;28;20526;-69
2021/08/17 07:37:50;;;;;;;5.40;3.70;;;18.70;77.00;;;;;;5071696;28;20447;-70
2021/08/17 07:40:19;;;;;;;4.90;3.10;;;18.80;78.10;;;;;;5071790;28;20479;-72
2021/08/17 07:42:48;;;;;;;5.30;4.00;;;19.00;80.40;;;;;;5071884;28;20436;-68
2021/08/17 07:45:16;;;;;;;5.20;3.13;;;19.20;77.90;;;;;;5072002;28;20514;-68
2021/08/17 07:47:52;;;;;;;5.17;3.50;;;19.20;72.00;;;;;;5071824;28;20515;-68
2021/08/17 07:50:19;;;;;;;4.20;3.27;;;19.40;75.20;;;;;;5072317;28;20926;-67
2021/08/17 07:52:47;;;;;;;5.40;3.40;;;19.60;69.70;;;;;;5071837;28;20439;-68
2021/08/17 07:55:16;;;;;;;5.60;3.47;;;19.60;71.30;;;;;;5071307;28;20904;-68
2021/08/17 07:57:43;;;;;;;6.30;3.20;;;19.90;73.60;;;;;;5071215;28;20474;-68
2021/08/17 08:00:16;;;;;;;6.27;2.97;;;20.10;73.40;;;;;;5071768;28;20472;-68
2021/08/17 08:02:44;;;;;;;6.20;3.50;;;20.30;68.80;;;;;;5071834;28;20432;-68
2021/08/17 08:05:11;;;;;;;4.63;3.00;;;20.50;66.20;;;;;;5071198;28;20440;-70
2021/08/17 08:07:38;;;;;;;6.13;3.43;;;20.50;66.20;;;;;;5071461;28;20443;-68
2021/08/17 08:10:06;;;;;;;4.53;2.57;;;20.60;66.00;;;;;;5071890;28;20843;-68
2021/08/17 08:12:43;;;;;;;4.57;2.90;;;20.60;65.20;;;;;;5075411;28;20493;-68
2021/08/17 08:15:13;;;;;;;4.10;2.90;;;20.60;66.00;;;;;;5075807;28;20557;-68
2021/08/17 08:17:40;;;;;;;6.67;3.57;;;20.60;66.60;;;;;;5074763;28;20493;-69
2021/08/17 08:20:09;;;;;;;5.17;2.90;;;20.70;66.50;;;;;;5075540;28;20459;-68
2021/08/17 08:22:45;;;;;;;5.43;3.70;;;21.00;67.10;;;;;;5074827;28;20470;-68
2021/08/17 08:25:12;;;;;;;5.77;3.23;;;21.40;65.40;;;;;;5075257;28;20472;-69
2021/08/17 08:27:39;;;;;;;5.40;3.33;;;21.90;66.20;;;;;;5074862;28;20552;-69
2021/08/17 08:30:07;;;;;;;5.03;3.40;;;22.30;64.80;;;;;;5075109;28;20506;-68
2021/08/17 08:32:36;;;;;;;4.90;2.93;;;22.70;61.80;;;;;;5074916;28;20498;-68
2021/08/17 08:35:10;;;;;;;5.80;3.47;;;22.90;58.90;;;;;;5075119;28;20558;-68
2021/08/17 08:37:38;;;;;;;3.80;2.63;;;23.00;57.80;;;;;;5074905;28;20501;-68
2021/08/17 08:40:07;;;;;;;4.73;3.23;;;23.00;56.70;;;;;;5074802;28;20468;-68
2021/08/17 08:42:34;;;;;;;5.67;3.07;;;23.10;58.00;;;;;;5074627;28;20440;-69
2021/08/17 08:45:02;;;;;;;5.40;3.60;;;23.30;57.10;;;;;;5074334;28;20524;-69
2021/08/17 08:47:29;;;;;;;4.40;3.00;;;23.50;54.20;;;;;;5073825;28;20845;-68
2021/08/17 08:49:59;;;;;;;4.43;2.73;;;23.60;54.10;;;;;;5075185;28;20803;-68
2021/08/17 08:52:35;;;;;;;5.20;3.40;;;23.60;52.50;;;;;;5074915;28;20440;-69
2021/08/17 08:55:02;;;;;;;5.90;3.70;;;23.50;52.30;;;;;;5074990;28;20585;-69
2021/08/17 08:57:29;;;;;;;3.87;2.67;;;23.50;54.00;;;;;;5074970;28;20550;-68
2021/08/17 08:59:56;;;;;;;5.07;2.73;;;23.50;53.50;;;;;;5074083;28;20487;-69
2021/08/17 09:02:31;;;;;;;5.03;3.03;;;23.60;54.70;;;;;;5074833;28;20487;-70
2021/08/17 09:05:01;;;;;;;3.97;3.00;;;23.60;54.00;;;;;;5074586;28;20513;-69
2021/08/17 09:07:36;;;;;;;5.27;3.10;;;23.70;55.50;;;;;;5074103;28;20502;-69
2021/08/17 09:10:09;;;;;;;5.83;3.00;;;23.70;53.60;;;;;;5074063;28;20494;-68
2021/08/17 09:12:43;;;;;;;5.33;3.50;;;23.70;53.40;;;;;;5074191;28;20778;-68
2021/08/17 09:15:17;;;;;;;6.43;4.03;;;23.70;48.40;;;;;;5074461;28;20537;-68
2021/08/17 09:17:44;;;;;;;6.27;3.50;;;23.60;50.10;;;;;;5074294;28;20439;-68
2021/08/17 09:20:49;;;;;;;4.97;3.43;;;23.50;45.50;;;;;;5073837;28;20527;-69
2021/08/17 09:23:28;;;;;;;5.40;3.33;;;23.10;48.30;;;;;;5074304;28;20985;-68
2021/08/17 09:25:57;;;;;;;4.90;3.13;;;23.00;50.80;;;;;;5073678;28;20511;-69
2021/08/17 09:28:26;;;;;;;5.47;3.33;;;23.20;51.30;;;;;;5074635;28;20439;-69
2021/08/17 09:30:53;;;;;;;4.47;2.73;;;23.40;52.80;;;;;;5073239;28;20775;-69
2021/08/17 09:34:12;;;;;;;4.93;2.80;;;23.70;52.90;;;;;;5074197;28;20436;-70
2021/08/17 09:36:41;;;;;;;3.50;2.50;;;24.00;49.80;;;;;;5074506;28;20436;-68
2021/08/17 09:39:10;;;;;;;4.50;3.20;;;24.30;50.50;;;;;;5073837;28;20490;-69
2021/08/17 09:42:06;;;;;;;8.13;3.17;;;24.50;50.30;;;;;;5074089;28;20478;-68
2021/08/17 09:44:33;;;;;;;4.80;3.10;;;24.70;51.10;;;;;;5073145;28;20854;-68
2021/08/17 09:47:00;;;;;;;4.03;2.50;;;24.90;50.30;;;;;;5073749;28;20478;-69
2021/08/17 09:50:15;;;;;;;5.50;3.17;;;25.10;48.20;;;;;;5073446;28;20528;-69
2021/08/17 09:52:42;;;;;;;3.47;2.10;;;25.40;47.40;;;;;;5073439;28;20910;-68
2021/08/17 09:55:32;;;;;;;5.57;3.40;;;25.60;49.70;;;;;;5073064;28;20537;-69
2021/08/17 09:58:24;;;;;;;5.40;3.17;;;25.80;48.00;;;;;;5071773;28;20479;-71
2021/08/17 10:00:53;;;;;;;5.10;3.47;;;26.20;47.70;;;;;;5073647;28;20443;-69
2021/08/17 10:03:21;;;;;;;7.10;3.40;;;26.50;46.30;;;;;;5073649;28;20440;-70
2021/08/17 10:05:48;;;;;;;5.30;3.60;;;26.80;45.50;;;;;;5072541;28;20558;-69
2021/08/17 10:08:17;;;;;;;4.07;2.80;;;26.90;44.10;;;;;;5072703;28;20464;-69
2021/08/17 10:10:48;;;;;;;3.90;2.80;;;26.90;45.00;;;;;;5073287;28;20968;-69
2021/08/17 10:13:20;;;;;;;3.97;2.53;;;27.00;43.50;;;;;;5072943;28;20501;-68
2021/08/17 10:15:48;;;;;;;4.30;2.83;;;27.00;42.60;;;;;;5073473;28;20512;-69
2021/08/17 10:18:20;;;;;;;5.57;2.63;;;27.20;43.90;;;;;;5072349;28;20480;-75
2021/08/17 10:20:50;;;;;;;5.00;3.00;;;27.20;39.40;;;;;;5073429;28;20436;-68
2021/08/17 10:23:41;;;;;;;3.70;3.17;;;26.90;41.10;;;;;;5072271;28;20497;-70
2021/08/17 10:26:10;;;;;;;5.00;2.87;;;27.00;43.30;;;;;;5071976;28;20468;-69
2021/08/17 10:28:39;;;;;;;3.43;2.73;;;27.30;40.60;;;;;;5072975;28;20532;-68
2021/08/17 10:31:24;;;;;;;4.70;3.10;;;27.50;40.10;;;;;;5072422;28;20523;-68
2021/08/17 10:33:53;;;;;;;3.43;2.30;;;27.50;41.00;;;;;;5071881;28;20838;-69
2021/08/17 10:36:36;;;;;;;3.57;2.23;;;27.60;42.00;;;;;;5072202;28;20571;-69
2021/08/17 10:42:35;;;;;;;5.63;3.00;;;28.10;40.10;;;;;;5072951;28;20479;-69
2021/08/17 10:45:27;;;;;;;3.97;2.67;;;28.60;40.00;;;;;;5073050;28;20779;-69
2021/08/17 10:47:54;;;;;;;4.90;3.97;;;29.00;39.30;;;;;;5072993;28;20439;-69
2021/08/17 10:50:31;;;;;;;4.13;2.80;;;29.40;38.50;;;;;;5072779;28;20443;-69
2021/08/17 10:53:19;;;;;;;4.03;2.70;;;29.30;36.40;;;;;;5072886;28;20438;-69
2021/08/17 10:55:46;;;;;;;3.50;2.37;;;29.30;38.20;;;;;;5072498;28;20539;-68
2021/08/17 10:58:15;;;;;;;3.90;2.83;;;29.20;37.30;;;;;;5071815;28;20767;-73
2021/08/17 11:04:05;;;;;;;4.60;2.60;;;29.10;35.60;;;;;;5072613;28;20505;-69
2021/08/17 11:13:09;;;;;;;3.83;2.43;;;28.60;34.40;;;;;;5072684;28;20437;-71
2021/08/17 11:15:38;;;;;;;5.90;3.47;;;28.40;33.80;;;;;;5072217;28;20568;-69
2021/08/17 11:18:06;;;;;;;4.40;2.67;;;28.10;34.20;;;;;;5071646;28;20917;-68
2021/08/17 11:20:33;;;;;;;5.13;3.33;;;28.00;33.20;;;;;;5072504;28;20479;-68
2021/08/17 11:23:01;;;;;;;5.03;3.00;;;27.90;37.60;;;;;;5071986;28;20489;-70
2021/08/17 11:25:39;;;;;;;5.30;3.30;;;27.90;35.60;;;;;;5072108;28;20860;-68
2021/08/17 11:28:06;;;;;;;4.20;2.67;;;27.90;36.50;;;;;;5072468;28;20508;-70
2021/08/17 11:30:33;;;;;;;3.77;2.90;;;28.00;36.00;;;;;;5071945;28;20530;-68
2021/08/17 11:33:02;;;;;;;4.60;3.10;;;28.10;37.70;;;;;;5071558;28;20494;-69
2021/08/17 11:35:29;;;;;;;4.57;3.07;;;28.00;36.10;;;;;;5071951;28;20568;-69
2021/08/17 11:37:58;;;;;;;4.40;3.53;;;27.80;35.80;;;;;;5071146;28;20450;-69
2021/08/17 11:40:26;;;;;;;4.50;3.30;;;27.70;36.60;;;;;;5071116;28;20532;-69
2021/08/17 11:42:56;;;;;;;4.83;3.40;;;27.80;36.30;;;;;;5070909;28;20802;-69
2021/08/17 11:45:26;;;;;;;5.43;3.43;;;27.90;36.30;;;;;;5074267;28;20804;-69
2021/08/17 11:47:55;;;;;;;6.40;4.40;;;28.00;37.60;;;;;;5075907;28;20523;-70
2021/08/17 11:50:24;;;;;;;10.90;8.07;;;28.20;38.40;;;;;;5075986;28;20437;-70
2021/08/17 11:52:53;;;;;;;13.67;10.37;;;28.30;37.20;;;;;;5075543;28;20931;-69
2021/08/17 11:55:22;;;;;;;5.30;3.80;;;28.20;35.90;;;;;;5074995;28;20530;-69
2021/08/17 11:57:51;;;;;;;7.47;3.40;;;27.90;35.50;;;;;;5075351;28;20526;-68
2021/08/17 12:00:20;;;;;;;5.40;4.10;;;27.60;35.50;;;;;;5075879;28;20440;-68
2021/08/17 12:05:26;;;;;;;6.43;4.80;;;26.90;35.90;;;;;;5076554;28;20416;-68
2021/08/17 12:07:55;;;;;;;9.50;7.10;;;26.60;36.50;;;;;;5075392;28;20439;-68
2021/08/17 12:10:30;;;;;;;9.83;4.77;;;26.40;36.60;;;;;;5075862;28;20552;-68
2021/08/17 12:13:05;;;;;;;5.00;3.30;;;26.40;37.00;;;;;;5076271;28;20835;-69
2021/08/17 12:15:39;;;;;;;5.67;3.83;;;26.20;37.70;;;;;;5076279;28;20477;-68
2021/08/17 12:18:09;;;;;;;5.90;3.90;;;26.10;38.10;;;;;;5076230;28;20432;-68
2021/08/17 12:20:39;;;;;;;5.20;3.60;;;26.00;37.10;;;;;;5075080;28;20535;-68
2021/08/17 12:23:25;;;;;;;5.50;4.30;;;25.90;37.80;;;;;;5075510;28;20515;-69
2021/08/17 12:25:57;;;;;;;6.07;4.47;;;25.80;38.90;;;;;;5075022;28;20518;-69
2021/08/17 12:28:26;;;;;;;5.93;4.30;;;25.80;38.90;;;;;;5075727;28;20435;-68
2021/08/17 12:31:28;;;;;;;8.77;3.67;;;25.90;39.00;;;;;;5074447;28;20440;-68
2021/08/17 12:33:57;;;;;;;5.57;4.17;;;26.10;39.10;;;;;;5074737;28;20853;-69
2021/08/17 12:36:46;;;;;;;5.10;3.40;;;26.30;40.70;;;;;;5073736;28;20487;-69
2021/08/17 12:39:21;;;;;;;4.20;3.13;;;26.30;38.20;;;;;;5074858;28;20462;-69
2021/08/17 12:41:50;;;;;;;8.53;6.10;;;26.30;40.10;;;;;;5075220;28;20431;-68
2021/08/17 12:44:20;;;;;;;6.63;4.70;;;26.30;38.80;;;;;;5074720;28;21025;-69
2021/08/17 12:47:10;;;;;;;6.03;4.17;;;26.40;40.50;;;;;;5075378;28;20831;-68
2021/08/17 12:49:39;;;;;;;5.67;3.93;;;26.50;40.40;;;;;;5075106;28;20919;-68
2021/08/17 12:52:29;;;;;;;5.83;3.90;;;26.60;39.00;;;;;;5074593;28;20489;-68
2021/08/17 12:54:58;;;;;;;7.50;4.47;;;26.60;38.80;;;;;;5074676;28;20436;-70
2021/08/17 12:57:27;;;;;;;6.83;4.30;;;26.70;39.30;;;;;;5073632;28;20965;-72
2021/08/17 12:59:56;;;;;;;8.00;4.90;;;26.50;38.00;;;;;;5074228;28;20519;-68
2021/08/17 13:02:23;;;;;;;6.43;4.10;;;26.50;37.70;;;;;;5074882;28;20440;-69
2021/08/17 13:04:50;;;;;;;6.40;4.10;;;26.50;38.60;;;;;;5074101;28;20528;-69
2021/08/17 13:07:17;;;;;;;6.50;5.13;;;26.40;37.70;;;;;;5074202;28;20469;-68
2021/08/17 13:09:46;;;;;;;9.37;6.50;;;26.30;39.50;;;;;;5074042;28;20529;-68
2021/08/17 13:12:14;;;;;;;7.43;4.10;;;26.20;38.30;;;;;;5073964;28;20519;-68
2021/08/17 13:14:47;;;;;;;6.20;4.57;;;26.10;39.00;;;;;;5074269;28;20428;-68